This is the latest recevied weather packets stored in our database for station/object KE0TNI-13. If no packets are shown the sender has not sent any weather packets the latest 10 day(s).
| Time | Temp. | Humidity | Pressure | Rain* | Wind** | Luminosity | Snow |
|---|---|---|---|---|---|---|---|
| 1777933791 | 6.67° C | 75% | 1014 hPa | 2.29 mm | - | 26 W/m² | - |
| 1777933489 | 7.22° C | 74% | 1014.3 hPa | 2.29 mm | - | 24 W/m² | - |
| 1777933186 | 8.33° C | 67% | 1014.1 hPa | 4.32 mm | - | 19 W/m² | - |
| 1777932883 | 10° C | 60% | 1013.9 hPa | 3.05 mm | - | 27 W/m² | - |
| 1777932580 | 11.11° C | 45% | 1013.9 hPa | 0 mm | - | 26 W/m² | - |
| 1777932277 | 11.11° C | 42% | 1013.9 hPa | 0 mm | - | 38 W/m² | - |
| 1777931974 | 11.11° C | 41% | 1014 hPa | 0 mm | - | 44 W/m² | - |
| 1777931670 | 11.67° C | 39% | 1013.6 hPa | 0 mm | - | 58 W/m² | - |
| 1777931367 | 11.67° C | 39% | 1013.6 hPa | 0 mm | - | 69 W/m² | - |
| 1777931064 | 11.67° C | 38% | 1013.6 hPa | 0 mm | - | 112 W/m² | - |
| 1777930760 | 11.67° C | 38% | 1013.7 hPa | 0 mm | - | 143 W/m² | - |
| 1777930456 | 12.22° C | 38% | 1013.7 hPa | 0 mm | - | 197 W/m² | - |
| 1777930154 | 12.22° C | 37% | 1013.9 hPa | 0 mm | - | 241 W/m² | - |
| 1777929849 | 11.67° C | 37% | 1013.7 hPa | 0 mm | - | 203 W/m² | - |
| 1777929548 | 11.67° C | 38% | 1014.1 hPa | 0 mm | - | 151 W/m² | - |
| 1777929243 | 11.67° C | 38% | 1014.3 hPa | 0 mm | - | 145 W/m² | - |
| 1777928941 | 12.22° C | 39% | 1014 hPa | 0 mm | - | 187 W/m² | - |
| 1777928637 | 12.22° C | 38% | 1014.1 hPa | 0 mm | - | 219 W/m² | - |
| 1777928335 | 12.22° C | 37% | 1014.4 hPa | 0 mm | - | 215 W/m² | - |
| 1777928033 | 12.78° C | 38% | 1014.3 hPa | 0 mm | - | 226 W/m² | - |
| 1777927730 | 12.78° C | 36% | 1014.1 hPa | 0 mm | - | 338 W/m² | - |
| 1777927429 | 13.33° C | 38% | 1014.4 hPa | 0 mm | - | 552 W/m² | - |
| 1777927128 | 12.78° C | 37% | 1014.5 hPa | 0 mm | - | 507 W/m² | - |
| 1777926824 | 12.78° C | 41% | 1014.7 hPa | 0 mm | - | 371 W/m² | - |
| 1777926520 | 12.78° C | 41% | 1014.7 hPa | 0 mm | - | 725 W/m² | - |
* Rain latest hour (hover to see other rain measurements)
** Current wind speed in m/s (hover to see current wind gust speed)